sensor_id;sensor_type;location;lat;lon;timestamp;P1;durP1;ratioP1;P2;durP2;ratioP2
7195;SDS011;3639;51.308;5.624;2024-03-02T00:00:14;1.27;;;1.17;;
7195;SDS011;3639;51.308;5.624;2024-03-02T00:02:43;1.30;;;1.20;;
7195;SDS011;3639;51.308;5.624;2024-03-02T00:05:13;1.00;;;1.00;;
7195;SDS011;3639;51.308;5.624;2024-03-02T00:07:43;1.10;;;1.10;;
7195;SDS011;3639;51.308;5.624;2024-03-02T00:10:11;1.00;;;1.00;;
7195;SDS011;3639;51.308;5.624;2024-03-02T00:12:41;0.97;;;0.97;;
7195;SDS011;3639;51.308;5.624;2024-03-02T00:15:21;1.10;;;1.10;;
7195;SDS011;3639;51.308;5.624;2024-03-02T00:17:55;1.10;;;1.10;;
7195;SDS011;3639;51.308;5.624;2024-03-02T00:20:22;1.00;;;1.00;;
7195;SDS011;3639;51.308;5.624;2024-03-02T00:22:48;1.10;;;1.10;;
7195;SDS011;3639;51.308;5.624;2024-03-02T00:25:19;1.10;;;1.10;;
7195;SDS011;3639;51.308;5.624;2024-03-02T00:27:47;1.10;;;1.10;;
7195;SDS011;3639;51.308;5.624;2024-03-02T00:30:27;1.17;;;1.13;;
7195;SDS011;3639;51.308;5.624;2024-03-02T00:33:21;1.03;;;1.03;;
7195;SDS011;3639;51.308;5.624;2024-03-02T00:35:48;1.17;;;1.17;;
7195;SDS011;3639;51.308;5.624;2024-03-02T00:38:14;1.10;;;1.10;;
7195;SDS011;3639;51.308;5.624;2024-03-02T00:40:44;1.10;;;1.10;;
7195;SDS011;3639;51.308;5.624;2024-03-02T00:43:12;1.30;;;1.30;;
7195;SDS011;3639;51.308;5.624;2024-03-02T00:45:44;1.00;;;1.00;;
7195;SDS011;3639;51.308;5.624;2024-03-02T00:48:09;1.10;;;1.10;;
7195;SDS011;3639;51.308;5.624;2024-03-02T00:50:35;1.13;;;1.13;;
7195;SDS011;3639;51.308;5.624;2024-03-02T00:53:01;1.20;;;1.20;;
7195;SDS011;3639;51.308;5.624;2024-03-02T00:55:27;1.10;;;1.10;;
7195;SDS011;3639;51.308;5.624;2024-03-02T00:57:53;1.10;;;1.10;;
7195;SDS011;3639;51.308;5.624;2024-03-02T01:00:18;1.10;;;1.10;;
7195;SDS011;3639;51.308;5.624;2024-03-02T01:02:44;1.20;;;1.20;;
7195;SDS011;3639;51.308;5.624;2024-03-02T01:05:11;1.10;;;1.10;;
7195;SDS011;3639;51.308;5.624;2024-03-02T01:07:38;1.20;;;1.20;;
7195;SDS011;3639;51.308;5.624;2024-03-02T01:10:04;1.20;;;1.20;;
7195;SDS011;3639;51.308;5.624;2024-03-02T01:12:29;1.20;;;1.20;;
7195;SDS011;3639;51.308;5.624;2024-03-02T01:14:55;1.20;;;1.20;;
7195;SDS011;3639;51.308;5.624;2024-03-02T01:17:21;1.10;;;1.10;;
7195;SDS011;3639;51.308;5.624;2024-03-02T01:19:47;1.20;;;1.20;;
7195;SDS011;3639;51.308;5.624;2024-03-02T01:22:12;1.10;;;1.10;;
7195;SDS011;3639;51.308;5.624;2024-03-02T01:24:38;1.10;;;1.10;;
7195;SDS011;3639;51.308;5.624;2024-03-02T01:27:04;1.10;;;1.10;;
7195;SDS011;3639;51.308;5.624;2024-03-02T01:29:29;1.10;;;1.10;;
7195;SDS011;3639;51.308;5.624;2024-03-02T01:31:55;1.10;;;1.10;;
7195;SDS011;3639;51.308;5.624;2024-03-02T01:34:20;1.10;;;1.10;;
7195;SDS011;3639;51.308;5.624;2024-03-02T01:36:46;1.27;;;1.27;;
7195;SDS011;3639;51.308;5.624;2024-03-02T01:39:11;1.10;;;1.10;;
7195;SDS011;3639;51.308;5.624;2024-03-02T01:41:37;1.20;;;1.20;;
7195;SDS011;3639;51.308;5.624;2024-03-02T01:44:03;1.20;;;1.20;;
7195;SDS011;3639;51.308;5.624;2024-03-02T01:46:29;1.10;;;1.10;;
7195;SDS011;3639;51.308;5.624;2024-03-02T01:48:54;1.20;;;1.20;;
7195;SDS011;3639;51.308;5.624;2024-03-02T01:51:20;1.20;;;1.20;;
7195;SDS011;3639;51.308;5.624;2024-03-02T01:53:46;1.20;;;1.20;;
7195;SDS011;3639;51.308;5.624;2024-03-02T01:56:11;1.10;;;1.10;;
7195;SDS011;3639;51.308;5.624;2024-03-02T01:58:37;1.10;;;1.10;;
7195;SDS011;3639;51.308;5.624;2024-03-02T02:01:03;1.10;;;1.10;;
7195;SDS011;3639;51.308;5.624;2024-03-02T02:03:28;1.20;;;1.20;;
7195;SDS011;3639;51.308;5.624;2024-03-02T02:05:54;1.30;;;1.30;;
7195;SDS011;3639;51.308;5.624;2024-03-02T02:08:20;1.20;;;1.20;;
7195;SDS011;3639;51.308;5.624;2024-03-02T02:10:45;1.10;;;1.10;;
7195;SDS011;3639;51.308;5.624;2024-03-02T02:13:11;1.20;;;1.20;;
7195;SDS011;3639;51.308;5.624;2024-03-02T02:15:37;1.20;;;1.20;;
7195;SDS011;3639;51.308;5.624;2024-03-02T02:18:02;1.20;;;1.20;;
7195;SDS011;3639;51.308;5.624;2024-03-02T02:20:29;1.23;;;1.23;;
7195;SDS011;3639;51.308;5.624;2024-03-02T02:22:58;1.10;;;1.10;;
7195;SDS011;3639;51.308;5.624;2024-03-02T02:25:25;1.20;;;1.20;;
7195;SDS011;3639;51.308;5.624;2024-03-02T02:27:51;1.20;;;1.20;;
7195;SDS011;3639;51.308;5.624;2024-03-02T02:30:21;1.30;;;1.30;;
7195;SDS011;3639;51.308;5.624;2024-03-02T02:32:54;1.17;;;1.17;;
7195;SDS011;3639;51.308;5.624;2024-03-02T02:35:20;1.30;;;1.30;;
7195;SDS011;3639;51.308;5.624;2024-03-02T02:37:46;1.10;;;1.10;;
7195;SDS011;3639;51.308;5.624;2024-03-02T02:40:12;1.20;;;1.20;;
7195;SDS011;3639;51.308;5.624;2024-03-02T02:42:38;1.13;;;1.13;;
7195;SDS011;3639;51.308;5.624;2024-03-02T02:45:05;1.20;;;1.20;;
7195;SDS011;3639;51.308;5.624;2024-03-02T02:47:31;1.20;;;1.20;;
7195;SDS011;3639;51.308;5.624;2024-03-02T02:50:00;1.20;;;1.20;;
7195;SDS011;3639;51.308;5.624;2024-03-02T02:52:31;1.20;;;1.20;;
7195;SDS011;3639;51.308;5.624;2024-03-02T02:54:58;1.10;;;1.10;;
7195;SDS011;3639;51.308;5.624;2024-03-02T02:57:24;1.10;;;1.10;;
7195;SDS011;3639;51.308;5.624;2024-03-02T02:59:50;1.10;;;1.10;;
7195;SDS011;3639;51.308;5.624;2024-03-02T03:02:15;1.10;;;1.10;;
7195;SDS011;3639;51.308;5.624;2024-03-02T03:04:41;1.10;;;1.10;;
7195;SDS011;3639;51.308;5.624;2024-03-02T03:07:07;1.20;;;1.20;;
7195;SDS011;3639;51.308;5.624;2024-03-02T03:09:32;1.10;;;1.10;;
7195;SDS011;3639;51.308;5.624;2024-03-02T03:11:58;1.20;;;1.20;;
7195;SDS011;3639;51.308;5.624;2024-03-02T03:14:23;1.20;;;1.20;;
7195;SDS011;3639;51.308;5.624;2024-03-02T03:16:49;1.30;;;1.30;;
7195;SDS011;3639;51.308;5.624;2024-03-02T03:19:15;1.20;;;1.20;;
7195;SDS011;3639;51.308;5.624;2024-03-02T03:21:42;1.30;;;1.30;;
7195;SDS011;3639;51.308;5.624;2024-03-02T03:24:08;1.27;;;1.27;;
7195;SDS011;3639;51.308;5.624;2024-03-02T03:26:35;1.10;;;1.10;;
7195;SDS011;3639;51.308;5.624;2024-03-02T03:29:01;1.10;;;1.10;;
7195;SDS011;3639;51.308;5.624;2024-03-02T03:31:27;1.10;;;1.10;;
7195;SDS011;3639;51.308;5.624;2024-03-02T03:33:53;1.10;;;1.10;;
7195;SDS011;3639;51.308;5.624;2024-03-02T03:36:19;1.40;;;1.30;;
7195;SDS011;3639;51.308;5.624;2024-03-02T03:38:44;1.20;;;1.20;;
7195;SDS011;3639;51.308;5.624;2024-03-02T03:41:10;1.20;;;1.20;;
7195;SDS011;3639;51.308;5.624;2024-03-02T03:43:36;1.20;;;1.20;;
7195;SDS011;3639;51.308;5.624;2024-03-02T03:46:01;1.10;;;1.10;;
7195;SDS011;3639;51.308;5.624;2024-03-02T03:48:27;1.20;;;1.20;;
7195;SDS011;3639;51.308;5.624;2024-03-02T03:50:55;1.20;;;1.20;;
7195;SDS011;3639;51.308;5.624;2024-03-02T03:53:22;1.20;;;1.20;;
7195;SDS011;3639;51.308;5.624;2024-03-02T03:55:48;1.10;;;1.10;;
7195;SDS011;3639;51.308;5.624;2024-03-02T03:58:14;1.10;;;1.10;;
7195;SDS011;3639;51.308;5.624;2024-03-02T04:00:41;1.20;;;1.20;;
7195;SDS011;3639;51.308;5.624;2024-03-02T04:03:07;1.10;;;1.10;;
7195;SDS011;3639;51.308;5.624;2024-03-02T04:05:33;1.17;;;1.17;;
7195;SDS011;3639;51.308;5.624;2024-03-02T04:07:58;1.20;;;1.20;;
7195;SDS011;3639;51.308;5.624;2024-03-02T04:10:25;1.10;;;1.10;;
7195;SDS011;3639;51.308;5.624;2024-03-02T04:12:50;1.20;;;1.20;;
7195;SDS011;3639;51.308;5.624;2024-03-02T04:15:16;1.23;;;1.23;;
7195;SDS011;3639;51.308;5.624;2024-03-02T04:17:43;1.20;;;1.20;;
7195;SDS011;3639;51.308;5.624;2024-03-02T04:20:09;1.10;;;1.10;;
7195;SDS011;3639;51.308;5.624;2024-03-02T04:22:37;1.30;;;1.30;;
7195;SDS011;3639;51.308;5.624;2024-03-02T04:25:03;1.20;;;1.20;;
7195;SDS011;3639;51.308;5.624;2024-03-02T04:27:29;1.20;;;1.20;;
7195;SDS011;3639;51.308;5.624;2024-03-02T04:29:56;1.20;;;1.20;;
7195;SDS011;3639;51.308;5.624;2024-03-02T04:32:22;1.10;;;1.10;;
7195;SDS011;3639;51.308;5.624;2024-03-02T04:34:47;1.10;;;1.10;;
7195;SDS011;3639;51.308;5.624;2024-03-02T04:37:13;1.10;;;1.10;;
7195;SDS011;3639;51.308;5.624;2024-03-02T04:39:39;1.10;;;1.10;;
7195;SDS011;3639;51.308;5.624;2024-03-02T04:42:05;1.20;;;1.20;;
7195;SDS011;3639;51.308;5.624;2024-03-02T04:44:30;1.27;;;1.27;;
7195;SDS011;3639;51.308;5.624;2024-03-02T04:46:56;1.10;;;1.10;;
7195;SDS011;3639;51.308;5.624;2024-03-02T04:49:22;1.20;;;1.20;;
7195;SDS011;3639;51.308;5.624;2024-03-02T04:51:48;1.20;;;1.20;;
7195;SDS011;3639;51.308;5.624;2024-03-02T04:54:13;1.30;;;1.30;;
7195;SDS011;3639;51.308;5.624;2024-03-02T04:56:39;1.20;;;1.20;;
7195;SDS011;3639;51.308;5.624;2024-03-02T04:59:09;1.20;;;1.20;;
7195;SDS011;3639;51.308;5.624;2024-03-02T05:01:35;1.13;;;1.13;;
7195;SDS011;3639;51.308;5.624;2024-03-02T05:04:01;1.20;;;1.20;;
7195;SDS011;3639;51.308;5.624;2024-03-02T05:06:27;1.20;;;1.20;;
7195;SDS011;3639;51.308;5.624;2024-03-02T05:08:52;1.10;;;1.10;;
7195;SDS011;3639;51.308;5.624;2024-03-02T05:11:18;1.20;;;1.20;;
7195;SDS011;3639;51.308;5.624;2024-03-02T05:14:02;1.10;;;1.10;;
7195;SDS011;3639;51.308;5.624;2024-03-02T05:16:34;1.20;;;1.20;;
7195;SDS011;3639;51.308;5.624;2024-03-02T05:19:00;1.27;;;1.27;;
7195;SDS011;3639;51.308;5.624;2024-03-02T05:21:26;1.30;;;1.30;;
7195;SDS011;3639;51.308;5.624;2024-03-02T05:23:51;1.20;;;1.20;;
7195;SDS011;3639;51.308;5.624;2024-03-02T05:26:17;1.17;;;1.17;;
7195;SDS011;3639;51.308;5.624;2024-03-02T05:28:43;1.20;;;1.20;;
7195;SDS011;3639;51.308;5.624;2024-03-02T05:31:11;1.30;;;1.30;;
7195;SDS011;3639;51.308;5.624;2024-03-02T05:33:39;1.10;;;1.10;;
7195;SDS011;3639;51.308;5.624;2024-03-02T05:36:05;1.20;;;1.20;;
7195;SDS011;3639;51.308;5.624;2024-03-02T05:38:31;1.10;;;1.10;;
7195;SDS011;3639;51.308;5.624;2024-03-02T05:40:57;1.50;;;1.40;;
7195;SDS011;3639;51.308;5.624;2024-03-02T05:43:23;1.30;;;1.30;;
7195;SDS011;3639;51.308;5.624;2024-03-02T05:45:48;1.20;;;1.20;;
7195;SDS011;3639;51.308;5.624;2024-03-02T05:48:14;1.20;;;1.20;;
7195;SDS011;3639;51.308;5.624;2024-03-02T05:50:39;1.30;;;1.30;;
7195;SDS011;3639;51.308;5.624;2024-03-02T05:53:05;1.33;;;1.27;;
7195;SDS011;3639;51.308;5.624;2024-03-02T05:55:31;1.20;;;1.20;;
7195;SDS011;3639;51.308;5.624;2024-03-02T05:57:56;1.20;;;1.20;;
7195;SDS011;3639;51.308;5.624;2024-03-02T06:00:31;1.20;;;1.20;;
7195;SDS011;3639;51.308;5.624;2024-03-02T06:02:57;1.20;;;1.20;;
7195;SDS011;3639;51.308;5.624;2024-03-02T06:05:22;1.20;;;1.20;;
7195;SDS011;3639;51.308;5.624;2024-03-02T06:07:49;1.30;;;1.30;;
7195;SDS011;3639;51.308;5.624;2024-03-02T06:10:15;1.20;;;1.20;;
7195;SDS011;3639;51.308;5.624;2024-03-02T06:12:41;1.20;;;1.20;;
7195;SDS011;3639;51.308;5.624;2024-03-02T06:15:06;1.20;;;1.20;;
7195;SDS011;3639;51.308;5.624;2024-03-02T06:17:32;1.30;;;1.30;;
7195;SDS011;3639;51.308;5.624;2024-03-02T06:20:00;1.20;;;1.20;;
7195;SDS011;3639;51.308;5.624;2024-03-02T06:22:26;1.20;;;1.20;;
7195;SDS011;3639;51.308;5.624;2024-03-02T06:24:51;1.20;;;1.20;;
7195;SDS011;3639;51.308;5.624;2024-03-02T06:27:17;1.20;;;1.20;;
7195;SDS011;3639;51.308;5.624;2024-03-02T06:29:42;1.20;;;1.20;;
7195;SDS011;3639;51.308;5.624;2024-03-02T06:32:08;1.20;;;1.20;;
7195;SDS011;3639;51.308;5.624;2024-03-02T06:34:33;1.20;;;1.20;;
7195;SDS011;3639;51.308;5.624;2024-03-02T06:36:59;1.20;;;1.20;;
7195;SDS011;3639;51.308;5.624;2024-03-02T06:39:24;1.20;;;1.20;;
7195;SDS011;3639;51.308;5.624;2024-03-02T06:41:50;1.20;;;1.20;;
7195;SDS011;3639;51.308;5.624;2024-03-02T06:44:16;1.20;;;1.20;;
7195;SDS011;3639;51.308;5.624;2024-03-02T06:46:42;1.10;;;1.10;;
7195;SDS011;3639;51.308;5.624;2024-03-02T06:49:08;1.20;;;1.20;;
7195;SDS011;3639;51.308;5.624;2024-03-02T06:51:35;1.50;;;1.40;;
7195;SDS011;3639;51.308;5.624;2024-03-02T06:54:04;1.20;;;1.20;;
7195;SDS011;3639;51.308;5.624;2024-03-02T06:56:29;1.20;;;1.20;;
7195;SDS011;3639;51.308;5.624;2024-03-02T06:58:55;1.20;;;1.20;;
7195;SDS011;3639;51.308;5.624;2024-03-02T07:01:21;1.20;;;1.20;;
7195;SDS011;3639;51.308;5.624;2024-03-02T07:03:46;1.30;;;1.30;;
7195;SDS011;3639;51.308;5.624;2024-03-02T07:06:12;1.20;;;1.20;;
7195;SDS011;3639;51.308;5.624;2024-03-02T07:08:38;1.20;;;1.20;;
7195;SDS011;3639;51.308;5.624;2024-03-02T07:11:03;1.20;;;1.20;;
7195;SDS011;3639;51.308;5.624;2024-03-02T07:13:29;1.10;;;1.10;;
7195;SDS011;3639;51.308;5.624;2024-03-02T07:15:54;1.20;;;1.20;;
7195;SDS011;3639;51.308;5.624;2024-03-02T07:18:29;1.57;;;1.47;;
7195;SDS011;3639;51.308;5.624;2024-03-02T07:21:06;1.20;;;1.20;;
7195;SDS011;3639;51.308;5.624;2024-03-02T07:23:32;1.20;;;1.20;;
7195;SDS011;3639;51.308;5.624;2024-03-02T07:25:58;1.20;;;1.20;;
7195;SDS011;3639;51.308;5.624;2024-03-02T07:28:25;1.20;;;1.20;;
7195;SDS011;3639;51.308;5.624;2024-03-02T07:31:00;1.10;;;1.10;;
7195;SDS011;3639;51.308;5.624;2024-03-02T07:33:27;1.10;;;1.10;;
7195;SDS011;3639;51.308;5.624;2024-03-02T07:35:53;1.33;;;1.33;;
7195;SDS011;3639;51.308;5.624;2024-03-02T07:38:20;1.10;;;1.10;;
7195;SDS011;3639;51.308;5.624;2024-03-02T07:40:46;1.03;;;1.03;;
7195;SDS011;3639;51.308;5.624;2024-03-02T07:43:14;1.20;;;1.20;;
7195;SDS011;3639;51.308;5.624;2024-03-02T07:45:39;1.10;;;1.10;;
7195;SDS011;3639;51.308;5.624;2024-03-02T07:48:06;1.20;;;1.20;;
7195;SDS011;3639;51.308;5.624;2024-03-02T07:50:31;1.10;;;1.10;;
7195;SDS011;3639;51.308;5.624;2024-03-02T07:52:59;1.30;;;1.30;;
7195;SDS011;3639;51.308;5.624;2024-03-02T07:55:28;1.20;;;1.20;;
7195;SDS011;3639;51.308;5.624;2024-03-02T07:57:55;1.10;;;1.10;;
7195;SDS011;3639;51.308;5.624;2024-03-02T08:00:21;1.20;;;1.20;;
7195;SDS011;3639;51.308;5.624;2024-03-02T08:02:47;1.30;;;1.30;;
7195;SDS011;3639;51.308;5.624;2024-03-02T08:05:13;1.10;;;1.10;;
7195;SDS011;3639;51.308;5.624;2024-03-02T08:07:39;1.13;;;1.13;;
7195;SDS011;3639;51.308;5.624;2024-03-02T08:10:06;1.20;;;1.20;;
7195;SDS011;3639;51.308;5.624;2024-03-02T08:12:32;1.40;;;1.30;;
7195;SDS011;3639;51.308;5.624;2024-03-02T08:14:57;1.30;;;1.30;;
7195;SDS011;3639;51.308;5.624;2024-03-02T08:17:23;1.20;;;1.20;;
7195;SDS011;3639;51.308;5.624;2024-03-02T08:19:48;1.10;;;1.10;;
7195;SDS011;3639;51.308;5.624;2024-03-02T08:22:14;1.20;;;1.20;;
7195;SDS011;3639;51.308;5.624;2024-03-02T08:24:40;1.20;;;1.20;;
7195;SDS011;3639;51.308;5.624;2024-03-02T08:27:06;1.10;;;1.10;;
7195;SDS011;3639;51.308;5.624;2024-03-02T08:29:32;1.07;;;1.07;;
7195;SDS011;3639;51.308;5.624;2024-03-02T08:31:57;1.10;;;1.10;;
7195;SDS011;3639;51.308;5.624;2024-03-02T08:34:23;1.20;;;1.20;;
7195;SDS011;3639;51.308;5.624;2024-03-02T08:36:48;1.30;;;1.30;;
7195;SDS011;3639;51.308;5.624;2024-03-02T08:39:17;1.20;;;1.20;;
7195;SDS011;3639;51.308;5.624;2024-03-02T08:41:44;1.20;;;1.20;;
7195;SDS011;3639;51.308;5.624;2024-03-02T08:44:10;1.10;;;1.10;;
7195;SDS011;3639;51.308;5.624;2024-03-02T08:46:37;1.10;;;1.10;;
7195;SDS011;3639;51.308;5.624;2024-03-02T08:49:03;1.10;;;1.10;;
7195;SDS011;3639;51.308;5.624;2024-03-02T08:51:29;1.10;;;1.10;;
7195;SDS011;3639;51.308;5.624;2024-03-02T08:53:55;1.10;;;1.10;;
7195;SDS011;3639;51.308;5.624;2024-03-02T08:56:21;1.40;;;1.30;;
7195;SDS011;3639;51.308;5.624;2024-03-02T08:58:48;1.10;;;1.10;;
7195;SDS011;3639;51.308;5.624;2024-03-02T09:01:15;1.00;;;1.00;;
7195;SDS011;3639;51.308;5.624;2024-03-02T09:03:41;1.20;;;1.20;;
7195;SDS011;3639;51.308;5.624;2024-03-02T09:06:09;1.10;;;1.10;;
7195;SDS011;3639;51.308;5.624;2024-03-02T09:08:35;1.00;;;1.00;;
7195;SDS011;3639;51.308;5.624;2024-03-02T09:11:01;1.10;;;1.10;;
7195;SDS011;3639;51.308;5.624;2024-03-02T09:13:28;1.00;;;1.00;;
7195;SDS011;3639;51.308;5.624;2024-03-02T09:15:54;1.07;;;1.03;;
7195;SDS011;3639;51.308;5.624;2024-03-02T09:18:19;1.10;;;1.10;;
7195;SDS011;3639;51.308;5.624;2024-03-02T09:20:45;1.00;;;1.00;;
7195;SDS011;3639;51.308;5.624;2024-03-02T09:23:11;1.00;;;1.00;;
7195;SDS011;3639;51.308;5.624;2024-03-02T09:25:36;1.77;;;1.40;;
7195;SDS011;3639;51.308;5.624;2024-03-02T09:28:02;1.00;;;1.00;;
7195;SDS011;3639;51.308;5.624;2024-03-02T09:30:28;1.00;;;1.00;;
7195;SDS011;3639;51.308;5.624;2024-03-02T09:32:54;1.10;;;1.10;;
7195;SDS011;3639;51.308;5.624;2024-03-02T09:35:19;1.10;;;1.10;;
7195;SDS011;3639;51.308;5.624;2024-03-02T09:37:45;1.00;;;1.00;;
7195;SDS011;3639;51.308;5.624;2024-03-02T09:40:11;1.00;;;1.00;;
7195;SDS011;3639;51.308;5.624;2024-03-02T09:42:38;1.10;;;1.10;;
7195;SDS011;3639;51.308;5.624;2024-03-02T09:45:05;1.10;;;1.10;;
7195;SDS011;3639;51.308;5.624;2024-03-02T09:47:31;1.10;;;1.10;;
7195;SDS011;3639;51.308;5.624;2024-03-02T09:49:57;1.63;;;1.20;;
7195;SDS011;3639;51.308;5.624;2024-03-02T09:52:23;1.00;;;1.00;;
7195;SDS011;3639;51.308;5.624;2024-03-02T09:54:48;1.10;;;1.10;;
7195;SDS011;3639;51.308;5.624;2024-03-02T09:57:14;1.00;;;1.00;;
7195;SDS011;3639;51.308;5.624;2024-03-02T09:59:40;1.10;;;1.10;;
7195;SDS011;3639;51.308;5.624;2024-03-02T10:02:06;1.00;;;1.00;;
7195;SDS011;3639;51.308;5.624;2024-03-02T10:04:32;1.00;;;1.00;;
7195;SDS011;3639;51.308;5.624;2024-03-02T10:07:10;1.00;;;1.00;;
7195;SDS011;3639;51.308;5.624;2024-03-02T10:09:37;0.90;;;0.90;;
7195;SDS011;3639;51.308;5.624;2024-03-02T10:12:04;0.90;;;0.90;;
7195;SDS011;3639;51.308;5.624;2024-03-02T10:14:30;1.00;;;1.00;;
7195;SDS011;3639;51.308;5.624;2024-03-02T10:17:01;1.00;;;1.00;;
7195;SDS011;3639;51.308;5.624;2024-03-02T10:19:31;1.00;;;1.00;;
7195;SDS011;3639;51.308;5.624;2024-03-02T10:21:58;1.00;;;1.00;;
7195;SDS011;3639;51.308;5.624;2024-03-02T10:24:25;0.90;;;0.90;;
7195;SDS011;3639;51.308;5.624;2024-03-02T10:26:51;0.97;;;0.97;;
7195;SDS011;3639;51.308;5.624;2024-03-02T10:29:17;0.90;;;0.90;;
7195;SDS011;3639;51.308;5.624;2024-03-02T10:31:44;0.90;;;0.90;;
7195;SDS011;3639;51.308;5.624;2024-03-02T10:34:11;1.00;;;1.00;;
7195;SDS011;3639;51.308;5.624;2024-03-02T10:36:40;1.00;;;1.00;;
7195;SDS011;3639;51.308;5.624;2024-03-02T10:39:07;0.90;;;0.90;;
7195;SDS011;3639;51.308;5.624;2024-03-02T10:41:34;0.90;;;0.90;;
7195;SDS011;3639;51.308;5.624;2024-03-02T10:44:07;0.90;;;0.90;;
7195;SDS011;3639;51.308;5.624;2024-03-02T10:46:35;1.00;;;1.00;;
7195;SDS011;3639;51.308;5.624;2024-03-02T10:49:02;1.00;;;1.00;;
7195;SDS011;3639;51.308;5.624;2024-03-02T10:51:29;0.90;;;0.90;;
7195;SDS011;3639;51.308;5.624;2024-03-02T10:53:59;1.00;;;1.00;;
7195;SDS011;3639;51.308;5.624;2024-03-02T10:56:30;1.00;;;1.00;;
7195;SDS011;3639;51.308;5.624;2024-03-02T11:01:35;0.90;;;0.90;;
7195;SDS011;3639;51.308;5.624;2024-03-02T11:04:04;1.30;;;1.20;;
7195;SDS011;3639;51.308;5.624;2024-03-02T11:06:34;1.00;;;1.00;;
7195;SDS011;3639;51.308;5.624;2024-03-02T11:09:05;1.00;;;1.00;;
7195;SDS011;3639;51.308;5.624;2024-03-02T11:11:37;1.00;;;1.00;;
7195;SDS011;3639;51.308;5.624;2024-03-02T11:14:07;0.90;;;0.90;;
7195;SDS011;3639;51.308;5.624;2024-03-02T11:16:36;0.90;;;0.90;;
7195;SDS011;3639;51.308;5.624;2024-03-02T11:19:04;0.90;;;0.90;;
7195;SDS011;3639;51.308;5.624;2024-03-02T11:21:32;0.90;;;0.90;;
7195;SDS011;3639;51.308;5.624;2024-03-02T11:23:59;0.90;;;0.90;;
7195;SDS011;3639;51.308;5.624;2024-03-02T11:26:24;0.90;;;0.90;;
7195;SDS011;3639;51.308;5.624;2024-03-02T11:28:50;1.13;;;1.03;;
7195;SDS011;3639;51.308;5.624;2024-03-02T11:31:16;1.00;;;1.00;;
7195;SDS011;3639;51.308;5.624;2024-03-02T11:33:42;0.90;;;0.90;;
7195;SDS011;3639;51.308;5.624;2024-03-02T11:36:08;1.20;;;1.20;;
7195;SDS011;3639;51.308;5.624;2024-03-02T11:38:34;0.90;;;0.90;;
7195;SDS011;3639;51.308;5.624;2024-03-02T11:41:01;0.97;;;0.97;;
7195;SDS011;3639;51.308;5.624;2024-03-02T11:43:28;0.80;;;0.80;;
7195;SDS011;3639;51.308;5.624;2024-03-02T11:45:58;0.80;;;0.80;;
7195;SDS011;3639;51.308;5.624;2024-03-02T11:48:31;1.10;;;1.00;;
7195;SDS011;3639;51.308;5.624;2024-03-02T11:50:58;0.80;;;0.80;;
7195;SDS011;3639;51.308;5.624;2024-03-02T11:53:25;0.90;;;0.90;;
7195;SDS011;3639;51.308;5.624;2024-03-02T11:55:53;0.90;;;0.90;;
7195;SDS011;3639;51.308;5.624;2024-03-02T11:58:23;0.80;;;0.80;;
7195;SDS011;3639;51.308;5.624;2024-03-02T12:00:52;0.90;;;0.90;;
7195;SDS011;3639;51.308;5.624;2024-03-02T12:03:20;0.90;;;0.90;;
7195;SDS011;3639;51.308;5.624;2024-03-02T12:05:51;0.80;;;0.80;;
7195;SDS011;3639;51.308;5.624;2024-03-02T12:08:18;0.87;;;0.87;;
7195;SDS011;3639;51.308;5.624;2024-03-02T12:10:55;0.97;;;0.93;;
7195;SDS011;3639;51.308;5.624;2024-03-02T12:13:25;0.93;;;0.93;;
7195;SDS011;3639;51.308;5.624;2024-03-02T12:15:53;0.90;;;0.90;;
7195;SDS011;3639;51.308;5.624;2024-03-02T12:18:22;0.83;;;0.83;;
7195;SDS011;3639;51.308;5.624;2024-03-02T12:20:49;1.00;;;0.90;;
7195;SDS011;3639;51.308;5.624;2024-03-02T12:23:17;0.80;;;0.80;;
7195;SDS011;3639;51.308;5.624;2024-03-02T12:25:43;1.10;;;1.10;;
7195;SDS011;3639;51.308;5.624;2024-03-02T12:28:09;0.80;;;0.80;;
7195;SDS011;3639;51.308;5.624;2024-03-02T12:30:35;0.80;;;0.80;;
7195;SDS011;3639;51.308;5.624;2024-03-02T12:33:01;0.90;;;0.90;;
7195;SDS011;3639;51.308;5.624;2024-03-02T12:35:27;0.80;;;0.80;;
7195;SDS011;3639;51.308;5.624;2024-03-02T12:37:53;0.80;;;0.80;;
7195;SDS011;3639;51.308;5.624;2024-03-02T12:40:19;0.80;;;0.80;;
7195;SDS011;3639;51.308;5.624;2024-03-02T12:42:47;0.90;;;0.90;;
7195;SDS011;3639;51.308;5.624;2024-03-02T12:45:13;0.80;;;0.80;;
7195;SDS011;3639;51.308;5.624;2024-03-02T12:47:40;0.97;;;0.97;;
7195;SDS011;3639;51.308;5.624;2024-03-02T12:50:07;0.90;;;0.90;;
7195;SDS011;3639;51.308;5.624;2024-03-02T12:52:34;0.80;;;0.80;;
7195;SDS011;3639;51.308;5.624;2024-03-02T12:55:01;0.80;;;0.80;;
7195;SDS011;3639;51.308;5.624;2024-03-02T12:57:30;0.80;;;0.80;;
7195;SDS011;3639;51.308;5.624;2024-03-02T13:00:00;0.80;;;0.80;;
7195;SDS011;3639;51.308;5.624;2024-03-02T13:02:33;0.80;;;0.80;;
7195;SDS011;3639;51.308;5.624;2024-03-02T13:05:00;0.73;;;0.73;;
7195;SDS011;3639;51.308;5.624;2024-03-02T13:07:26;0.80;;;0.80;;
7195;SDS011;3639;51.308;5.624;2024-03-02T13:09:52;0.80;;;0.80;;
7195;SDS011;3639;51.308;5.624;2024-03-02T13:12:20;0.80;;;0.80;;
7195;SDS011;3639;51.308;5.624;2024-03-02T13:14:51;0.80;;;0.80;;
7195;SDS011;3639;51.308;5.624;2024-03-02T13:17:20;0.80;;;0.80;;
7195;SDS011;3639;51.308;5.624;2024-03-02T13:19:52;1.13;;;1.13;;
7195;SDS011;3639;51.308;5.624;2024-03-02T13:22:18;0.87;;;0.87;;
7195;SDS011;3639;51.308;5.624;2024-03-02T13:24:44;0.90;;;0.90;;
7195;SDS011;3639;51.308;5.624;2024-03-02T13:27:10;0.87;;;0.87;;
7195;SDS011;3639;51.308;5.624;2024-03-02T13:29:35;0.80;;;0.80;;
7195;SDS011;3639;51.308;5.624;2024-03-02T13:32:02;1.30;;;1.20;;
7195;SDS011;3639;51.308;5.624;2024-03-02T13:34:27;0.80;;;0.80;;
7195;SDS011;3639;51.308;5.624;2024-03-02T13:36:53;0.80;;;0.80;;
7195;SDS011;3639;51.308;5.624;2024-03-02T13:39:19;0.80;;;0.80;;
7195;SDS011;3639;51.308;5.624;2024-03-02T13:41:44;0.80;;;0.80;;
7195;SDS011;3639;51.308;5.624;2024-03-02T13:44:17;0.77;;;0.77;;
7195;SDS011;3639;51.308;5.624;2024-03-02T13:46:44;0.80;;;0.80;;
7195;SDS011;3639;51.308;5.624;2024-03-02T13:49:11;0.70;;;0.70;;
7195;SDS011;3639;51.308;5.624;2024-03-02T13:51:37;0.80;;;0.80;;
7195;SDS011;3639;51.308;5.624;2024-03-02T13:54:02;0.80;;;0.80;;
7195;SDS011;3639;51.308;5.624;2024-03-02T13:56:29;0.97;;;0.80;;
7195;SDS011;3639;51.308;5.624;2024-03-02T13:58:54;0.80;;;0.80;;
7195;SDS011;3639;51.308;5.624;2024-03-02T14:01:20;0.80;;;0.80;;
7195;SDS011;3639;51.308;5.624;2024-03-02T14:03:46;0.80;;;0.80;;
7195;SDS011;3639;51.308;5.624;2024-03-02T14:06:12;0.80;;;0.80;;
7195;SDS011;3639;51.308;5.624;2024-03-02T14:08:37;0.80;;;0.80;;
7195;SDS011;3639;51.308;5.624;2024-03-02T14:11:03;0.80;;;0.80;;
7195;SDS011;3639;51.308;5.624;2024-03-02T14:13:29;0.80;;;0.80;;
7195;SDS011;3639;51.308;5.624;2024-03-02T14:15:54;0.80;;;0.80;;
7195;SDS011;3639;51.308;5.624;2024-03-02T14:18:20;0.70;;;0.70;;
7195;SDS011;3639;51.308;5.624;2024-03-02T14:20:46;0.87;;;0.87;;
7195;SDS011;3639;51.308;5.624;2024-03-02T14:23:17;0.80;;;0.80;;
7195;SDS011;3639;51.308;5.624;2024-03-02T14:25:44;0.97;;;0.97;;
7195;SDS011;3639;51.308;5.624;2024-03-02T14:28:10;1.00;;;0.90;;
7195;SDS011;3639;51.308;5.624;2024-03-02T14:30:37;0.90;;;0.90;;
7195;SDS011;3639;51.308;5.624;2024-03-02T14:33:02;0.70;;;0.70;;
7195;SDS011;3639;51.308;5.624;2024-03-02T14:35:29;0.80;;;0.80;;
7195;SDS011;3639;51.308;5.624;2024-03-02T14:37:55;0.70;;;0.70;;
7195;SDS011;3639;51.308;5.624;2024-03-02T14:40:22;0.73;;;0.73;;
7195;SDS011;3639;51.308;5.624;2024-03-02T14:42:51;0.80;;;0.80;;
7195;SDS011;3639;51.308;5.624;2024-03-02T14:45:17;0.70;;;0.70;;
7195;SDS011;3639;51.308;5.624;2024-03-02T14:47:42;0.70;;;0.70;;
7195;SDS011;3639;51.308;5.624;2024-03-02T14:50:08;0.70;;;0.70;;
7195;SDS011;3639;51.308;5.624;2024-03-02T14:52:34;0.80;;;0.80;;
7195;SDS011;3639;51.308;5.624;2024-03-02T14:55:00;0.70;;;0.70;;
7195;SDS011;3639;51.308;5.624;2024-03-02T14:57:27;0.70;;;0.70;;
7195;SDS011;3639;51.308;5.624;2024-03-02T14:59:53;0.70;;;0.70;;
7195;SDS011;3639;51.308;5.624;2024-03-02T15:02:19;0.70;;;0.70;;
7195;SDS011;3639;51.308;5.624;2024-03-02T15:04:47;0.80;;;0.80;;
7195;SDS011;3639;51.308;5.624;2024-03-02T15:07:13;0.90;;;0.90;;
7195;SDS011;3639;51.308;5.624;2024-03-02T15:09:39;0.83;;;0.83;;
7195;SDS011;3639;51.308;5.624;2024-03-02T15:12:05;0.80;;;0.80;;
7195;SDS011;3639;51.308;5.624;2024-03-02T15:14:34;0.80;;;0.80;;